Terminal Aerodrome Forecast
Issued by NWS Wilmington, OH

Home | Current Version | Previous Version | Text Only | Print | Product List | Glossary On
Versions: 1 2 3 4 5 6 7 8 9 10 11 12 13 14 15 16 17 18 19 20 21 22
000
FTUS41 KILN 191100
TAFDAY
TAF
KDAY 191130Z 1912/2012 30004KT P6SM OVC025
     FM191700 01004KT P6SM OVC035
     FM200400 06004KT P6SM BKN035
     FM200900 08003KT P6SM BKN022=

USA.gov is the U.S. government's official web portal to all federal, state and local government web resources and services.